Time;durP1;ratioP1;P1;durP2;ratioP2;P2;SDS_P1;SDS_P2;PMS_P1;PMS_P2;Temp;Humidity;BMP_temperature;BMP_pressure;BME280_temperature;BME280_humidity;BME280_pressure;Samples;Min_cycle;Max_cycle;Signal;HPM_P1;HPM_P2
2021/11/01 00:00:20;;;;;;;;;;;;;;;10.81;82.20;95234.25;5075879;28;19974;-76
2021/11/01 00:02:47;;;;;;;;;;;;;;;10.83;82.15;95234.78;5076341;28;19951;-76
2021/11/01 00:05:13;;;;;;;;;;;;;;;10.84;82.05;95235.59;5079805;28;19953;-76
2021/11/01 00:07:39;;;;;;;;;;;;;;;10.85;82.15;95239.78;5085166;28;19973;-76
2021/11/01 00:10:06;;;;;;;;;;;;;;;10.86;82.45;95239.53;5073727;28;19960;-76
2021/11/01 00:12:32;;;;;;;;;;;;;;;10.87;82.64;95243.75;5075860;28;19957;-76
2021/11/01 00:14:59;;;;;;;;;;;;;;;10.88;82.82;95231.44;5075954;28;19959;-76
2021/11/01 00:17:25;;;;;;;;;;;;;;;10.89;82.54;95235.63;5075965;28;19956;-76
2021/11/01 00:19:52;;;;;;;;;;;;;;;10.89;82.66;95233.78;5075813;28;19974;-76
2021/11/01 00:22:18;;;;;;;;;;;;;;;10.90;82.46;95238.00;5075553;28;19971;-75
2021/11/01 00:24:44;;;;;;;;;;;;;;;10.92;83.04;95241.19;5064028;28;19964;-75
2021/11/01 00:27:10;;;;;;;;;;;;;;;10.94;82.81;95238.28;5074348;28;19958;-76
2021/11/01 00:29:36;;;;;;;;;;;;;;;10.94;82.92;95227.78;5075676;28;19968;-76
2021/11/01 00:32:02;;;;;;;;;;;;;;;10.95;83.28;95224.13;5075470;28;19960;-76
2021/11/01 00:34:28;;;;;;;;;;;;;;;10.95;83.40;95224.94;5076013;28;19945;-76
2021/11/01 00:36:54;;;;;;;;;;;;;;;10.97;83.58;95216.81;5075564;28;20045;-75
2021/11/01 00:39:20;;;;;;;;;;;;;;;10.96;83.06;95213.41;5075540;28;20002;-77
2021/11/01 00:41:46;;;;;;;;;;;;;;;10.99;83.28;95203.47;5075394;28;19966;-76
2021/11/01 00:44:12;;;;;;;;;;;;;;;11.00;83.36;95197.94;5070919;28;19960;-76
2021/11/01 00:46:38;;;;;;;;;;;;;;;11.01;83.83;95199.53;5067084;28;19949;-75
2021/11/01 00:49:05;;;;;;;;;;;;;;;11.00;84.17;95194.53;5075191;28;19984;-77
2021/11/01 00:51:35;;;;;;;;;;;;;;;10.99;84.36;95185.88;5075592;28;19962;-76
2021/11/01 00:54:01;;;;;;;;;;;;;;;11.01;85.08;95193.50;5074951;28;19980;-76
2021/11/01 00:56:27;;;;;;;;;;;;;;;11.00;86.25;95182.19;5074958;28;19965;-76
2021/11/01 00:58:53;;;;;;;;;;;;;;;11.00;86.27;95179.56;5074997;28;20471;-76
2021/11/01 01:01:19;;;;;;;;;;;;;;;11.02;85.41;95177.50;5072358;28;19986;-76
2021/11/01 01:03:45;;;;;;;;;;;;;;;11.04;86.24;95188.53;5073846;28;19958;-76
2021/11/01 01:06:11;;;;;;;;;;;;;;;11.04;85.28;95177.25;5061268;28;19955;-76
2021/11/01 01:08:37;;;;;;;;;;;;;;;11.05;86.18;95173.59;5074737;28;20353;-76
2021/11/01 01:11:03;;;;;;;;;;;;;;;11.07;87.36;95179.38;5077647;28;19952;-75
2021/11/01 01:13:35;;;;;;;;;;;;;;;11.10;87.53;95184.13;5085409;28;20094;-76
2021/11/01 01:18:36;;;;;;;;;;;;;;;11.14;88.99;95174.69;5069136;28;19957;-76
2021/11/01 01:22:10;;;;;;;;;;;;;;;11.17;89.94;95166.31;5074876;28;19979;-75
2021/11/01 01:23:48;;;;;;;;;;;;;;;11.23;92.26;95164.53;5074322;28;19964;-76
2021/11/01 01:26:15;;;;;;;;;;;;;;;11.30;95.15;95170.34;5074568;28;19949;-76
2021/11/01 01:28:42;;;;;;;;;;;;;;;11.36;91.58;95170.13;5073239;28;19954;-75
2021/11/01 01:31:08;;;;;;;;;;;;;;;11.41;89.73;95163.31;5074275;28;19949;-76
2021/11/01 01:33:34;;;;;;;;;;;;;;;11.43;90.44;95167.28;5074089;28;19953;-75
2021/11/01 01:36:00;;;;;;;;;;;;;;;11.44;90.26;95166.22;5072290;28;19954;-76
2021/11/01 01:38:26;;;;;;;;;;;;;;;11.44;88.72;95165.44;5073705;28;19954;-76
2021/11/01 01:40:56;;;;;;;;;;;;;;;11.42;88.23;95168.31;5072980;28;20293;-75
2021/11/01 01:43:22;;;;;;;;;;;;;;;11.42;87.59;95170.94;5074610;28;19952;-75
2021/11/01 01:45:48;;;;;;;;;;;;;;;11.39;87.58;95163.56;5074137;28;19956;-76
2021/11/01 01:48:15;;;;;;;;;;;;;;;11.39;87.64;95166.19;5074295;28;19950;-76
2021/11/01 01:50:41;;;;;;;;;;;;;;;11.38;88.01;95168.03;5074257;28;19948;-76
2021/11/01 01:53:07;;;;;;;;;;;;;;;11.36;87.81;95170.13;5065242;28;19978;-76
2021/11/01 01:55:33;;;;;;;;;;;;;;;11.35;88.32;95173.00;5074038;28;20005;-75
2021/11/01 01:58:00;;;;;;;;;;;;;;;11.34;88.02;95177.47;5073850;28;19969;-76
2021/11/01 02:00:41;;;;;;;;;;;;;;;11.34;87.59;95179.31;5074349;28;19965;-75
2021/11/01 02:03:08;;;;;;;;;;;;;;;11.34;87.49;95201.09;5060306;28;19966;-76
2021/11/01 02:05:50;;;;;;;;;;;;;;;11.34;89.78;95208.97;5073690;28;20745;-76
2021/11/01 02:08:17;;;;;;;;;;;;;;;11.32;91.75;95215.50;5073721;28;19949;-74
2021/11/01 02:10:46;;;;;;;;;;;;;;;11.29;91.68;95211.53;5068228;28;19964;-74
2021/11/01 02:13:20;;;;;;;;;;;;;;;11.26;91.19;95212.06;5073977;28;19958;-74
2021/11/01 02:15:49;;;;;;;;;;;;;;;11.19;89.18;95203.59;5073062;28;19957;-75
2021/11/01 02:18:17;;;;;;;;;;;;;;;11.08;89.41;95188.81;5086940;28;19955;-74
2021/11/01 02:21:02;;;;;;;;;;;;;;;11.01;89.48;95190.88;5084262;28;19983;-75
2021/11/01 02:23:30;;;;;;;;;;;;;;;10.95;89.79;95192.66;5065304;28;20406;-75
2021/11/01 02:25:58;;;;;;;;;;;;;;;10.92;90.05;95193.97;5071475;28;19969;-75
2021/11/01 02:28:35;;;;;;;;;;;;;;;10.92;90.12;95201.06;5072744;28;19949;-75
2021/11/01 02:31:04;;;;;;;;;;;;;;;10.93;89.81;95200.00;5072771;28;19979;-75
2021/11/01 02:33:30;;;;;;;;;;;;;;;10.90;89.42;95184.78;5073595;28;20333;-75
2021/11/01 02:35:56;;;;;;;;;;;;;;;10.86;89.20;95188.94;5073484;28;20440;-76
2021/11/01 02:38:24;;;;;;;;;;;;;;;10.82;89.02;95182.59;5073554;28;19961;-75
2021/11/01 02:40:51;;;;;;;;;;;;;;;10.79;89.11;95198.81;5073266;28;19983;-76
2021/11/01 02:43:17;;;;;;;;;;;;;;;10.74;87.22;95202.97;5068551;28;19973;-76
2021/11/01 02:45:46;;;;;;;;;;;;;;;10.69;86.61;95199.53;5071526;28;19955;-75
2021/11/01 02:48:12;;;;;;;;;;;;;;;10.58;88.40;95193.38;5073307;28;19965;-76
2021/11/01 02:50:39;;;;;;;;;;;;;;;10.52;89.59;95204.88;5073155;28;19957;-76
2021/11/01 02:53:05;;;;;;;;;;;;;;;10.50;89.68;95197.28;5073246;28;19988;-75
2021/11/01 02:55:33;;;;;;;;;;;;;;;10.49;90.54;95203.53;5072153;28;19963;-75
2021/11/01 02:58:00;;;;;;;;;;;;;;;10.52;91.06;95202.25;5073575;28;19972;-74
2021/11/01 03:00:26;;;;;;;;;;;;;;;10.53;90.05;95209.09;5068529;28;19960;-75
2021/11/01 03:02:53;;;;;;;;;;;;;;;10.55;90.80;95220.91;5073304;28;19967;-74
2021/11/01 03:05:20;;;;;;;;;;;;;;;10.55;89.58;95207.00;5073253;28;19962;-74
2021/11/01 03:07:46;;;;;;;;;;;;;;;10.53;89.86;95209.88;5073087;28;19955;-75
2021/11/01 03:10:12;;;;;;;;;;;;;;;10.54;90.25;95205.41;5073081;28;19966;-74
2021/11/01 03:12:40;;;;;;;;;;;;;;;10.55;90.25;95199.16;5072164;28;19964;-74
2021/11/01 03:15:07;;;;;;;;;;;;;;;10.56;90.06;95206.78;5071922;28;19960;-75
2021/11/01 03:17:38;;;;;;;;;;;;;;;10.59;90.32;95204.69;5065939;28;19950;-74
2021/11/01 03:20:07;;;;;;;;;;;;;;;10.60;90.58;95217.53;5069487;28;19965;-74
2021/11/01 03:22:36;;;;;;;;;;;;;;;10.63;90.35;95227.53;5073284;28;19978;-77
2021/11/01 03:25:10;;;;;;;;;;;;;;;10.64;90.22;95225.69;5081894;28;19960;-74
2021/11/01 03:27:38;;;;;;;;;;;;;;;10.65;89.93;95228.09;5073571;28;20442;-74
2021/11/01 03:30:04;;;;;;;;;;;;;;;10.66;90.08;95223.63;5075739;28;19961;-74
2021/11/01 03:32:31;;;;;;;;;;;;;;;10.66;90.32;95250.63;5076860;28;19970;-74
2021/11/01 03:34:58;;;;;;;;;;;;;;;10.67;90.21;95254.06;5071085;28;19963;-75
2021/11/01 03:37:25;;;;;;;;;;;;;;;10.66;89.88;95268.97;5076468;28;19967;-74
2021/11/01 03:39:51;;;;;;;;;;;;;;;10.67;89.77;95272.41;5076468;28;19960;-74
2021/11/01 03:42:17;;;;;;;;;;;;;;;10.67;89.68;95288.16;5076549;28;19977;-75
2021/11/01 03:44:49;;;;;;;;;;;;;;;10.68;90.20;95287.09;5076279;28;19959;-74
2021/11/01 03:47:16;;;;;;;;;;;;;;;10.68;90.15;95292.34;5076520;28;19950;-74
2021/11/01 03:49:51;;;;;;;;;;;;;;;10.66;90.22;95292.56;5076365;28;19957;-74
2021/11/01 03:52:22;;;;;;;;;;;;;;;10.65;90.01;95288.38;5068069;28;19966;-74
2021/11/01 03:54:48;;;;;;;;;;;;;;;10.62;90.60;95281.00;5076532;28;19958;-74
2021/11/01 03:57:14;;;;;;;;;;;;;;;10.60;90.79;95295.38;5076341;28;19953;-74
2021/11/01 03:59:40;;;;;;;;;;;;;;;10.56;90.18;95292.47;5076095;28;19959;-74
2021/11/01 04:02:14;;;;;;;;;;;;;;;10.51;91.56;95305.53;5076231;28;20397;-74
2021/11/01 04:04:44;;;;;;;;;;;;;;;10.49;91.49;95311.00;5076052;28;19958;-74
2021/11/01 04:07:10;;;;;;;;;;;;;;;10.47;91.46;95304.44;5075827;28;19953;-74
2021/11/01 04:09:36;;;;;;;;;;;;;;;10.46;91.52;95298.41;5075058;28;20005;-74
2021/11/01 04:12:02;;;;;;;;;;;;;;;10.45;91.34;95301.25;5076114;28;19951;-74
2021/11/01 04:14:35;;;;;;;;;;;;;;;10.44;91.59;95324.06;5074652;28;19956;-74
2021/11/01 04:17:08;;;;;;;;;;;;;;;10.42;91.09;95334.00;5075991;28;19955;-75
2021/11/01 04:19:48;;;;;;;;;;;;;;;10.39;91.47;95337.09;5075266;28;19950;-74
2021/11/01 04:22:14;;;;;;;;;;;;;;;10.38;91.35;95319.00;5063033;28;19976;-74
2021/11/01 04:24:41;;;;;;;;;;;;;;;10.39;90.71;95323.97;5075348;28;19967;-75
2021/11/01 04:27:07;;;;;;;;;;;;;;;10.39;90.95;95317.97;5073534;28;19974;-75
2021/11/01 04:29:33;;;;;;;;;;;;;;;10.39;90.82;95316.13;5079709;28;20398;-74
2021/11/01 04:32:35;;;;;;;;;;;;;;;10.41;90.96;95326.38;5080948;28;19973;-75
2021/11/01 04:35:18;;;;;;;;;;;;;;;10.40;90.74;95333.44;5066212;28;19947;-74
2021/11/01 04:37:40;;;;;;;;;;;;;;;10.36;90.36;95337.59;5064028;28;20410;-74
2021/11/01 04:53:39;;;;;;;;;;;;;;;10.18;89.88;95359.59;5075870;28;19977;-74
2021/11/01 04:56:05;;;;;;;;;;;;;;;10.18;90.27;95364.03;5075123;28;20421;-75
2021/11/01 04:58:32;;;;;;;;;;;;;;;10.16;90.19;95364.28;5074973;28;20424;-74
2021/11/01 05:01:00;;;;;;;;;;;;;;;10.15;90.23;95354.84;5065152;28;21308;-74
2021/11/01 05:03:41;;;;;;;;;;;;;;;10.16;90.48;95367.72;5074886;28;19982;-75
2021/11/01 05:06:08;;;;;;;;;;;;;;;10.17;90.13;95368.50;5074076;28;19951;-74
2021/11/01 05:08:46;;;;;;;;;;;;;;;10.18;90.21;95370.06;5074761;28;19952;-75
2021/11/01 05:14:05;;;;;;;;;;;;;;;10.13;90.41;95375.25;5074105;28;19960;-74
2021/11/01 05:21:47;;;;;;;;;;;;;;;10.02;89.85;95386.63;5074457;28;19954;-75
2021/11/01 05:24:22;;;;;;;;;;;;;;;9.94;90.80;95393.06;5074638;28;19975;-74
2021/11/01 05:29:14;;;;;;;;;;;;;;;9.73;88.39;95403.19;5074403;28;19966;-75
2021/11/01 05:31:46;;;;;;;;;;;;;;;9.62;87.13;95398.06;5074548;28;20516;-75
2021/11/01 05:34:15;;;;;;;;;;;;;;;9.52;87.90;95409.94;5075061;28;19963;-75
2021/11/01 05:36:41;;;;;;;;;;;;;;;9.47;88.58;95404.63;5081347;28;19985;-74
2021/11/01 05:39:07;;;;;;;;;;;;;;;9.39;87.29;95401.59;5080852;28;20403;-74
2021/11/01 05:41:33;;;;;;;;;;;;;;;9.32;86.54;95405.16;5074193;28;20048;-74
2021/11/01 05:43:59;;;;;;;;;;;;;;;9.24;86.53;95397.69;5074035;28;19966;-75
2021/11/01 05:46:33;;;;;;;;;;;;;;;9.14;87.21;95390.44;5074042;28;19958;-74
2021/11/01 05:48:59;;;;;;;;;;;;;;;9.08;87.23;95382.75;5073214;28;19962;-74
2021/11/01 05:51:25;;;;;;;;;;;;;;;9.01;86.57;95389.91;5070228;28;19964;-74
2021/11/01 05:53:57;;;;;;;;;;;;;;;8.97;87.75;95388.81;5073660;28;20037;-74
2021/11/01 05:59:06;;;;;;;;;;;;;;;8.96;88.52;95402.91;5073917;28;19960;-74
2021/11/01 06:10:04;;;;;;;;;;;;;;;8.96;88.91;95395.84;5065392;28;19974;-74
2021/11/01 06:15:14;;;;;;;;;;;;;;;8.96;88.43;95400.28;5073672;28;19951;-75
2021/11/01 06:17:42;;;;;;;;;;;;;;;8.97;88.53;95401.91;5073575;28;19959;-74
2021/11/01 06:20:08;;;;;;;;;;;;;;;8.99;88.09;95403.25;5074029;28;19948;-74
2021/11/01 06:22:34;;;;;;;;;;;;;;;9.01;88.84;95398.59;5073690;28;19993;-74
2021/11/01 06:25:05;;;;;;;;;;;;;;;9.01;88.32;95401.19;5062768;28;19974;-74
2021/11/01 06:27:32;;;;;;;;;;;;;;;9.05;89.09;95397.09;5074890;28;19980;-74
2021/11/01 06:30:22;;;;;;;;;;;;;;;9.08;89.55;95393.19;5073430;28;19953;-74
2021/11/01 06:41:16;;;;;;;;;;;;;;;9.08;88.59;95399.22;5077063;28;19966;-75
2021/11/01 06:52:26;;;;;;;;;;;;;;;9.09;89.27;95392.97;5073543;28;19961;-75
2021/11/01 07:14:06;;;;;;;;;;;;;;;9.14;89.28;95413.19;5071921;28;20045;-74
2021/11/01 07:19:38;;;;;;;;;;;;;;;8.98;88.96;95435.63;5076927;28;19954;-75
2021/11/01 07:22:36;;;;;;;;;;;;;;;8.91;88.84;95446.22;5076917;28;19953;-74
2021/11/01 08:30:11;;;;;;;;;;;;;;;8.77;91.21;95457.97;5060189;28;20420;-75
2021/11/01 08:48:52;;;;;;;;;;;;;;;8.79;91.15;95449.91;5074328;28;19953;-76
2021/11/01 09:11:46;;;;;;;;;;;;;;;8.84;92.57;95431.69;5074926;28;19970;-76
2021/11/01 09:18:43;;;;;;;;;;;;;;;8.89;93.08;95422.13;5066626;28;20332;-78
2021/11/01 09:26:52;;;;;;;;;;;;;;;9.09;91.64;95462.78;5072874;28;19959;-76
2021/11/01 09:42:16;;;;;;;;;;;;;;;9.03;90.36;95446.22;5074508;28;19962;-76
2021/11/01 09:44:45;;;;;;;;;;;;;;;9.05;91.31;95459.03;5074184;28;20010;-76
2021/11/01 09:47:12;;;;;;;;;;;;;;;9.08;91.69;95469.84;5074245;28;19960;-76
2021/11/01 09:49:38;;;;;;;;;;;;;;;9.10;91.67;95480.84;5068530;28;19955;-76
2021/11/01 09:52:08;;;;;;;;;;;;;;;9.08;89.71;95476.88;5073819;28;19962;-76
2021/11/01 09:54:37;;;;;;;;;;;;;;;9.01;90.15;95487.50;5073848;28;19989;-77
2021/11/01 09:57:06;;;;;;;;;;;;;;;8.94;89.77;95482.41;5074467;28;19978;-76
2021/11/01 09:59:36;;;;;;;;;;;;;;;8.89;90.63;95479.66;5079437;28;20414;-76
2021/11/01 10:02:03;;;;;;;;;;;;;;;8.91;91.90;95482.06;5082910;28;20315;-76
2021/11/01 10:04:30;;;;;;;;;;;;;;;8.94;90.84;95478.97;5073707;28;19995;-76
2021/11/01 10:09:57;;;;;;;;;;;;;;;8.99;90.76;95466.00;5073805;28;20444;-76
2021/11/01 10:12:26;;;;;;;;;;;;;;;8.99;90.37;95459.97;5073666;28;19944;-76
2021/11/01 10:17:32;;;;;;;;;;;;;;;8.98;90.12;95453.94;5073701;28;20313;-76
2021/11/01 10:17:56;;;;;;;;;;;;;;;9.00;91.43;95451.88;5073854;28;19951;-76
2021/11/01 10:20:22;;;;;;;;;;;;;;;9.06;91.56;95460.63;5073853;28;19956;-76
2021/11/01 10:22:48;;;;;;;;;;;;;;;9.12;91.83;95468.34;5064367;28;20357;-76
2021/11/01 10:25:16;;;;;;;;;;;;;;;9.12;90.38;95470.16;5073188;28;19963;-76
2021/11/01 10:27:46;;;;;;;;;;;;;;;9.10;89.55;95473.00;5073436;28;19953;-76
2021/11/01 10:30:15;;;;;;;;;;;;;;;9.10;90.85;95473.00;5073886;28;19968;-76
2021/11/01 10:32:44;;;;;;;;;;;;;;;9.08;89.85;95469.03;5073347;28;20328;-76
2021/11/01 10:35:19;;;;;;;;;;;;;;;9.09;90.64;95465.38;5073445;28;20420;-76
2021/11/01 10:38:00;;;;;;;;;;;;;;;9.11;90.58;95453.69;5073107;28;19955;-77
2021/11/01 10:40:27;;;;;;;;;;;;;;;9.12;90.58;95431.72;5071412;28;19949;-76
2021/11/01 10:42:55;;;;;;;;;;;;;;;9.13;90.04;95427.28;5073325;28;20311;-76
2021/11/01 10:56:31;;;;;;;;;;;;;;;9.20;90.93;95429.75;5073492;28;19958;-76
2021/11/01 11:10:48;;;;;;;;;;;;;;;9.20;90.05;95427.13;5073610;28;19966;-76
2021/11/01 11:13:13;;;;;;;;;;;;;;;9.28;89.73;95405.84;5070013;28;19954;-77
2021/11/01 11:15:40;;;;;;;;;;;;;;;9.30;89.98;95404.59;5065649;28;19954;-76
2021/11/01 11:21:13;;;;;;;;;;;;;;;9.42;89.46;95394.06;5073249;28;19960;-76
2021/11/01 11:26:47;;;;;;;;;;;;;;;9.56;88.47;95397.19;5073164;28;19980;-76
2021/11/01 11:42:52;;;;;;;;;;;;;;;9.46;87.19;95391.78;5072905;28;19945;-76
2021/11/01 11:51:05;;;;;;;;;;;;;;;9.43;88.75;95376.53;5070331;28;20424;-76
2021/11/01 11:53:32;;;;;;;;;;;;;;;9.46;88.70;95386.53;5074977;28;20002;-76
2021/11/01 11:56:09;;;;;;;;;;;;;;;9.46;88.90;95384.69;5076336;28;20326;-76
2021/11/01 11:58:38;;;;;;;;;;;;;;;9.48;87.56;95381.84;5076349;28;20325;-76
2021/11/01 12:01:23;;;;;;;;;;;;;;;9.48;87.51;95380.03;5076315;28;19966;-76
2021/11/01 12:03:48;;;;;;;;;;;;;;;9.51;88.46;95376.13;5065315;28;19972;-77
2021/11/01 12:06:17;;;;;;;;;;;;;;;9.50;87.59;95377.97;5070081;28;19952;-76
2021/11/01 12:08:50;;;;;;;;;;;;;;;9.50;86.47;95369.34;5076147;28;19958;-76
2021/11/01 12:11:32;;;;;;;;;;;;;;;9.51;87.81;95363.88;5080394;28;19953;-77
2021/11/01 12:14:17;;;;;;;;;;;;;;;9.52;85.94;95372.50;5079526;28;19965;-77
2021/11/01 12:17:07;;;;;;;;;;;;;;;9.50;86.86;95377.19;5076825;28;20345;-76
2021/11/01 12:19:34;;;;;;;;;;;;;;;9.49;85.85;95360.69;5062809;28;20321;-76
2021/11/01 12:22:04;;;;;;;;;;;;;;;9.46;85.40;95352.50;5068760;28;19952;-77
2021/11/01 12:24:31;;;;;;;;;;;;;;;9.42;84.72;95362.66;5075859;28;19963;-76
2021/11/01 12:27:04;;;;;;;;;;;;;;;9.39;84.05;95357.91;5075776;28;20329;-77
2021/11/01 12:29:32;;;;;;;;;;;;;;;9.38;85.26;95358.91;5066696;28;19956;-76
2021/11/01 12:32:01;;;;;;;;;;;;;;;9.37;85.40;95351.34;5075588;28;19949;-76
2021/11/01 12:34:28;;;;;;;;;;;;;;;9.37;85.67;95356.56;5075445;28;19965;-77
2021/11/01 12:37:03;;;;;;;;;;;;;;;9.38;85.03;95352.91;5074462;28;19959;-76
2021/11/01 12:39:35;;;;;;;;;;;;;;;9.37;84.58;95352.13;5065185;28;19958;-76
2021/11/01 12:58:27;;;;;;;;;;;;;;;9.52;84.20;95313.09;5075402;28;19964;-76
2021/11/01 13:00:53;;;;;;;;;;;;;;;9.54;84.51;95305.81;5073198;28;19965;-76
2021/11/01 13:03:21;;;;;;;;;;;;;;;9.55;82.62;95312.63;5074432;28;19965;-76
2021/11/01 13:06:27;;;;;;;;;;;;;;;9.54;82.76;95305.00;5075058;28;19969;-76
2021/11/01 13:08:48;;;;;;;;;;;;;;;9.54;84.15;95311.03;5068677;28;19961;-76
2021/11/01 13:11:33;;;;;;;;;;;;;;;9.56;84.57;95305.56;5075152;28;19952;-76
2021/11/01 13:19:32;;;;;;;;;;;;;;;9.65;83.43;95298.88;5073209;28;19957;-76
2021/11/01 13:22:04;;;;;;;;;;;;;;;9.65;83.29;95303.34;5074777;28;20334;-76
2021/11/01 13:24:57;;;;;;;;;;;;;;;9.64;82.10;95297.31;5074535;28;19968;-76
2021/11/01 13:38:45;;;;;;;;;;;;;;;9.73;82.50;95302.94;5074378;28;20422;-76
2021/11/01 13:41:16;;;;;;;;;;;;;;;9.77;81.76;95308.50;5074368;28;19956;-78
2021/11/01 13:43:44;;;;;;;;;;;;;;;9.75;81.18;95309.50;5074210;28;20325;-76
2021/11/01 13:46:13;;;;;;;;;;;;;;;9.78;82.14;95305.63;5073345;28;20327;-76
2021/11/01 13:48:39;;;;;;;;;;;;;;;9.81;82.74;95315.63;5074274;28;19961;-76
2021/11/01 13:51:08;;;;;;;;;;;;;;;9.88;82.98;95294.50;5074028;28;19983;-77
2021/11/01 13:53:51;;;;;;;;;;;;;;;9.95;83.34;95295.09;5073812;28;19983;-76
2021/11/01 13:56:31;;;;;;;;;;;;;;;10.03;81.82;95301.75;5074496;28;19974;-76
2021/11/01 13:59:05;;;;;;;;;;;;;;;10.10;82.60;95305.00;5074006;28;19959;-77
2021/11/01 14:20:38;;;;;;;;;;;;;;;10.07;81.16;95290.56;5058389;28;19977;-76
2021/11/01 14:34:04;;;;;;;;;;;;;;;10.04;82.29;95264.06;5073619;28;19966;-77
2021/11/01 14:55:24;;;;;;;;;;;;;;;10.03;82.01;95276.34;5063087;28;19960;-76
2021/11/01 14:56:51;;;;;;;;;;;;;;;9.99;81.74;95248.28;5070349;28;19959;-76
2021/11/01 15:25:19;;;;;;;;;;;;;;;10.11;81.07;95236.66;5074053;28;19967;-76
2021/11/01 15:36:11;;;;;;;;;;;;;;;10.06;81.77;95243.66;5076786;28;19957;-76
2021/11/01 15:38:37;;;;;;;;;;;;;;;10.04;82.72;95243.91;5075102;28;19965;-76
2021/11/01 16:17:07;;;;;;;;;;;;;;;9.52;84.03;95271.22;5076459;28;19950;-76
2021/11/01 16:19:40;;;;;;;;;;;;;;;9.46;83.81;95269.56;5059986;28;19953;-76
2021/11/01 16:22:07;;;;;;;;;;;;;;;9.41;83.72;95273.91;5104233;28;19958;-76
2021/11/01 16:24:33;;;;;;;;;;;;;;;9.35;83.69;95275.69;5076087;28;19984;-76
2021/11/01 16:27:00;;;;;;;;;;;;;;;9.27;83.68;95286.53;5076195;28;19957;-76
2021/11/01 16:29:38;;;;;;;;;;;;;;;9.23;83.68;95295.91;5075633;28;19943;-76
2021/11/01 16:32:08;;;;;;;;;;;;;;;9.16;83.88;95290.81;5075713;28;19963;-77
2021/11/01 16:34:36;;;;;;;;;;;;;;;9.12;83.90;95292.31;5076996;28;19963;-77
2021/11/01 16:42:11;;;;;;;;;;;;;;;8.98;84.53;95293.66;5067182;28;19954;-77
2021/11/01 16:44:38;;;;;;;;;;;;;;;8.95;84.73;95300.16;5075475;28;19969;-76
2021/11/01 16:47:04;;;;;;;;;;;;;;;8.92;85.02;95301.41;5075334;28;20331;-76
2021/11/01 16:49:31;;;;;;;;;;;;;;;8.91;85.26;95301.66;5075912;28;19960;-76
2021/11/01 16:52:02;;;;;;;;;;;;;;;8.90;85.33;95311.31;5075777;28;20412;-76
2021/11/01 16:54:31;;;;;;;;;;;;;;;8.89;85.40;95306.31;5061779;28;19984;-77
2021/11/01 16:57:04;;;;;;;;;;;;;;;8.88;85.98;95299.50;5075326;28;19972;-77
2021/11/01 16:59:47;;;;;;;;;;;;;;;8.86;86.13;95297.13;5075239;28;19960;-78
2021/11/01 17:04:47;;;;;;;;;;;;;;;8.84;86.61;95296.56;5074995;28;19967;-76
2021/11/01 17:07:27;;;;;;;;;;;;;;;8.84;86.72;95295.75;5075024;28;19963;-76
2021/11/01 17:26:33;;;;;;;;;;;;;;;8.57;87.61;95308.59;5074424;28;20324;-74
2021/11/01 18:53:14;;;;;;;;;;;;;;;7.48;85.10;95274.25;5073560;28;20059;-76
2021/11/01 18:55:43;;;;;;;;;;;;;;;7.45;84.71;95282.53;5071924;28;19973;-76
2021/11/01 18:58:10;;;;;;;;;;;;;;;7.41;84.73;95275.38;5073229;28;20409;-76
2021/11/01 19:00:40;;;;;;;;;;;;;;;7.38;84.70;95273.25;5075705;28;19977;-76
2021/11/01 19:03:06;;;;;;;;;;;;;;;7.34;84.66;95275.50;5077406;28;19963;-76
2021/11/01 19:06:02;;;;;;;;;;;;;;;7.29;84.65;95273.56;5077342;28;20443;-75
2021/11/01 19:08:31;;;;;;;;;;;;;;;7.25;84.55;95271.66;5066360;28;20406;-76
2021/11/01 20:14:42;;;;;;;;;;;;;;;6.01;84.95;95318.97;5075158;28;19956;-77
2021/11/01 21:26:36;;;;;;;;;;;;;;;5.47;86.17;95292.66;5064069;28;20328;-76
2021/11/01 21:29:02;;;;;;;;;;;;;;;5.45;85.66;95290.25;5074774;28;19964;-76
2021/11/01 21:31:28;;;;;;;;;;;;;;;5.43;85.71;95297.47;5074662;28;20396;-76
2021/11/01 21:33:56;;;;;;;;;;;;;;;5.40;85.50;95294.53;5074751;28;19956;-76
2021/11/01 21:36:25;;;;;;;;;;;;;;;5.36;85.64;95298.56;5074252;28;19962;-76
2021/11/01 21:38:53;;;;;;;;;;;;;;;5.34;85.52;95292.78;5074767;28;19970;-76
2021/11/01 21:41:20;;;;;;;;;;;;;;;5.29;85.69;95288.19;5074675;28;19964;-76
2021/11/01 21:43:46;;;;;;;;;;;;;;;5.26;85.94;95288.63;5074223;28;20330;-76
2021/11/01 21:46:12;;;;;;;;;;;;;;;5.24;85.99;95286.25;5074142;28;19972;-76
2021/11/01 21:48:38;;;;;;;;;;;;;;;5.25;86.35;95281.84;5073121;28;19959;-77
2021/11/01 21:51:04;;;;;;;;;;;;;;;5.25;86.42;95281.84;5073911;28;19975;-76
2021/11/01 21:53:31;;;;;;;;;;;;;;;5.24;86.20;95282.84;5073981;28;20443;-76
2021/11/01 21:55:58;;;;;;;;;;;;;;;5.25;86.48;95280.03;5074054;28;19965;-77
2021/11/01 22:18:30;;;;;;;;;;;;;;;5.13;85.47;95263.56;5072552;28;19972;-76
2021/11/01 22:20:54;;;;;;;;;;;;;;;5.09;85.56;95263.16;5072802;28;19964;-76
2021/11/01 22:26:21;;;;;;;;;;;;;;;5.03;85.33;95252.84;5073715;28;19967;-76
2021/11/01 22:34:20;;;;;;;;;;;;;;;4.90;85.02;95252.94;5073588;28;19965;-76
2021/11/01 22:42:45;;;;;;;;;;;;;;;4.75;85.25;95243.66;5075713;28;19960;-76
2021/11/01 22:45:23;;;;;;;;;;;;;;;4.71;85.09;95244.28;5073548;28;20297;-76
2021/11/01 22:48:20;;;;;;;;;;;;;;;4.69;85.17;95241.91;5073711;28;19954;-76
2021/11/01 22:56:23;;;;;;;;;;;;;;;4.66;86.26;95235.34;5073692;28;19955;-76
2021/11/01 22:58:50;;;;;;;;;;;;;;;4.67;86.84;95236.91;5072571;28;19961;-77
2021/11/01 23:01:24;;;;;;;;;;;;;;;4.67;87.37;95223.91;5073390;28;19965;-76
2021/11/01 23:33:52;;;;;;;;;;;;;;;4.76;87.87;95192.50;5073255;28;19958;-76
2021/11/01 23:36:17;;;;;;;;;;;;;;;4.80;88.60;95196.28;5072999;28;20064;-76
2021/11/01 23:38:44;;;;;;;;;;;;;;;4.81;89.09;95190.88;5073192;28;19958;-77
2021/11/01 23:41:10;;;;;;;;;;;;;;;4.86;89.59;95192.81;5072888;28;19946;-76
2021/11/01 23:43:36;;;;;;;;;;;;;;;4.88;89.75;95183.81;5073284;28;19962;-76
2021/11/01 23:46:02;;;;;;;;;;;;;;;4.93;90.54;95185.75;5073830;28;20000;-76
2021/11/01 23:48:28;;;;;;;;;;;;;;;4.95;90.63;95181.16;5076516;28;20316;-76
2021/11/01 23:50:55;;;;;;;;;;;;;;;4.97;90.30;95180.94;5076641;28;19957;-76
2021/11/01 23:56:03;;;;;;;;;;;;;;;4.98;89.84;95178.13;5076564;28;20027;-77
2021/11/01 23:58:29;;;;;;;;;;;;;;;5.00;90.03;95186.50;5063906;28;19956;-76
